Time;durP1;ratioP1;P1;durP2;ratioP2;P2;SDS_P1;SDS_P2;PMS_P1;PMS_P2;Temp;Humidity;BMP_temperature;BMP_pressure;BME280_temperature;BME280_humidity;BME280_pressure;Samples;Min_cycle;Max_cycle;Signal;HPM_P1;HPM_P2
2021/06/03 00:00:12;;;;;;;6.07;4.10;;;;;;;11.87;68.43;99142.81;5046113;28;20569;-63
2021/06/03 00:02:37;;;;;;;7.20;4.60;;;;;;;11.85;68.79;99144.53;5041466;28;20393;-63
2021/06/03 00:05:06;;;;;;;5.83;5.27;;;;;;;11.87;68.57;99153.09;5043076;28;20033;-63
2021/06/03 00:07:32;;;;;;;5.37;4.73;;;;;;;11.86;68.67;99154.81;5040113;28;20654;-63
2021/06/03 00:09:57;;;;;;;5.00;4.50;;;;;;;11.96;67.91;99152.09;5043090;28;20116;-63
2021/06/03 00:12:23;;;;;;;9.73;5.80;;;;;;;11.95;68.04;99152.97;5043815;28;20315;-63
2021/06/03 00:14:48;;;;;;;5.10;4.60;;;;;;;11.84;68.15;99146.25;5059377;28;20068;-63
2021/06/03 00:17:14;;;;;;;5.88;4.32;;;;;;;11.81;68.34;99158.31;5041312;28;20039;-63
2021/06/03 00:19:39;;;;;;;5.43;4.87;;;;;;;11.74;68.66;99156.72;5041992;28;20056;-63
2021/06/03 00:22:04;;;;;;;8.60;4.83;;;;;;;11.74;68.70;99162.69;5043927;28;20029;-63
2021/06/03 00:24:30;;;;;;;7.17;4.70;;;;;;;11.69;68.87;99161.88;5043431;28;20033;-63
2021/06/03 00:26:55;;;;;;;6.83;5.37;;;;;;;11.68;69.12;99159.31;5055805;28;20690;-63
2021/06/03 00:29:21;;;;;;;4.93;4.53;;;;;;;11.63;69.86;99154.25;5040814;28;20029;-63
2021/06/03 00:31:46;;;;;;;7.67;5.37;;;;;;;11.59;69.44;99162.03;5040930;28;20381;-63
2021/06/03 00:34:12;;;;;;;8.03;5.87;;;;;;;11.52;70.39;99160.44;5044020;28;20274;-63
2021/06/03 00:36:37;;;;;;;6.63;5.10;;;;;;;11.49;70.15;99161.34;5040238;28;20044;-63
2021/06/03 00:39:04;;;;;;;5.73;5.13;;;;;;;11.41;70.43;99158.84;5042716;28;20094;-63
2021/06/03 00:41:29;;;;;;;7.17;4.47;;;;;;;11.38;71.02;99166.59;5040544;28;20044;-63
2021/06/03 00:43:55;;;;;;;8.73;4.67;;;;;;;11.30;71.05;99165.00;5040358;28;20025;-63
2021/06/03 00:46:21;;;;;;;6.13;5.40;;;;;;;11.40;70.39;99167.44;5042504;28;20754;-63
2021/06/03 00:48:46;;;;;;;5.50;4.87;;;;;;;11.39;70.02;99175.16;5039325;28;20045;-63
2021/06/03 00:51:12;;;;;;;4.93;4.47;;;;;;;11.35;70.62;99176.91;5044828;28;20072;-63
2021/06/03 00:53:40;;;;;;;5.73;5.23;;;;;;;11.30;70.62;99176.13;5046617;28;20037;-63
2021/06/03 00:56:06;;;;;;;6.47;5.13;;;;;;;11.25;71.61;99171.91;5044910;28;20279;-63
2021/06/03 00:58:34;;;;;;;6.90;5.47;;;;;;;11.28;71.71;99171.91;5043857;28;20025;-63
2021/06/03 01:01:00;;;;;;;9.17;5.37;;;;;;;11.22;72.08;99172.81;5048557;28;20111;-63
2021/06/03 01:03:28;;;;;;;7.67;5.77;;;;;;;11.19;72.22;99174.56;5045224;28;20044;-63
2021/06/03 01:06:06;;;;;;;8.17;5.60;;;;;;;11.13;72.27;99179.78;5043582;28;20021;-63
2021/06/03 01:08:46;;;;;;;9.00;6.87;;;;;;;11.05;73.31;99174.75;5042891;28;20056;-63
2021/06/03 01:11:42;;;;;;;6.93;5.10;;;;;;;10.99;72.70;99173.09;5043734;28;20434;-63
2021/06/03 01:14:24;;;;;;;5.43;4.93;;;;;;;10.96;72.84;99167.16;5046326;28;20064;-63
2021/06/03 01:16:51;;;;;;;7.67;5.37;;;;;;;10.92;73.17;99171.47;5045573;28;20043;-63
2021/06/03 01:19:23;;;;;;;7.87;5.77;;;;;;;10.92;73.54;99173.19;5044486;28;20048;-63
2021/06/03 01:21:55;;;;;;;6.47;5.87;;;;;;;10.93;73.25;99173.19;5046900;28;20298;-63
2021/06/03 01:24:34;;;;;;;6.73;5.80;;;;;;;10.92;73.41;99175.75;5045441;28;20033;-63
2021/06/03 01:27:05;;;;;;;6.70;6.00;;;;;;;10.89;73.17;99168.94;5045902;28;20123;-63
2021/06/03 01:29:48;;;;;;;6.40;5.80;;;;;;;10.85;73.74;99171.56;5060448;28;20091;-63
2021/06/03 01:32:14;;;;;;;6.57;5.27;;;;;;;10.78;74.13;99172.47;5059448;28;20392;-63
2021/06/03 01:34:40;;;;;;;6.67;5.97;;;;;;;10.79;73.38;99176.75;5044280;28;20120;-62
2021/06/03 01:37:06;;;;;;;8.97;5.43;;;;;;;10.74;74.09;99179.38;5046423;28;20037;-63
2021/06/03 01:39:34;;;;;;;6.57;5.37;;;;;;;10.74;73.09;99179.38;5045360;28;20033;-63
2021/06/03 01:42:00;;;;;;;6.77;5.50;;;;;;;10.68;74.02;99178.59;5059648;28;20388;-63
2021/06/03 01:44:27;;;;;;;9.60;5.40;;;;;;;10.67;73.93;99176.88;5044544;28;20044;-63
2021/06/03 01:46:53;;;;;;;5.60;5.03;;;;;;;10.61;73.44;99169.28;5046666;28;20036;-63
2021/06/03 01:49:19;;;;;;;8.13;5.33;;;;;;;10.61;73.60;99187.22;5052206;28;20074;-63
2021/06/03 01:51:45;;;;;;;6.33;4.77;;;;;;;10.59;73.73;99174.41;5044727;28;20036;-63
2021/06/03 01:54:13;;;;;;;8.67;5.40;;;;;;;10.60;73.71;99176.13;5045017;28;20131;-63
2021/06/03 01:56:39;;;;;;;5.73;5.10;;;;;;;10.59;73.29;99174.41;5045697;28;20029;-63
2021/06/03 01:59:04;;;;;;;6.17;5.20;;;;;;;10.54;73.57;99161.63;5042339;28;20102;-63
2021/06/03 02:01:30;;;;;;;5.33;4.83;;;;;;;10.51;73.46;99173.66;5046692;28;20736;-63
2021/06/03 02:03:57;;;;;;;5.53;5.03;;;;;;;10.51;73.45;99173.66;5042541;28;20035;-63
2021/06/03 02:06:24;;;;;;;6.17;5.53;;;;;;;10.50;73.30;99170.22;5047349;28;20041;-63
2021/06/03 02:08:49;;;;;;;7.33;5.70;;;;;;;10.44;74.08;99170.28;5046369;28;20039;-63
2021/06/03 02:11:15;;;;;;;5.90;5.40;;;;;;;10.46;73.73;99167.72;5042014;28;20033;-63
2021/06/03 02:13:47;;;;;;;5.73;5.20;;;;;;;10.43;73.46;99166.03;5042689;28;20044;-63
2021/06/03 02:16:28;;;;;;;5.87;4.87;;;;;;;10.39;73.68;99171.22;5046071;28;20041;-63
2021/06/03 02:19:02;;;;;;;6.67;5.40;;;;;;;10.38;74.25;99164.38;5046262;28;20033;-63
2021/06/03 02:21:28;;;;;;;7.17;5.23;;;;;;;10.33;74.98;99169.53;5041893;28;20072;-63
2021/06/03 02:23:56;;;;;;;7.60;5.63;;;;;;;10.31;74.32;99163.56;5043132;28;20471;-63
2021/06/03 02:26:22;;;;;;;6.00;5.13;;;;;;;10.30;73.87;99176.41;5043790;28;20036;-63
2021/06/03 02:28:49;;;;;;;6.60;5.17;;;;;;;10.34;74.94;99172.97;5048002;28;20048;-63
2021/06/03 02:31:15;;;;;;;6.70;6.10;;;;;;;10.26;74.27;99175.59;5043504;28;20144;-63
2021/06/03 02:33:41;;;;;;;5.47;4.97;;;;;;;10.24;75.15;99167.06;5043413;28;20120;-63
2021/06/03 02:36:07;;;;;;;6.00;5.40;;;;;;;10.22;74.55;99168.81;5044408;28;20033;-64
2021/06/03 02:38:36;;;;;;;7.20;5.60;;;;;;;10.21;75.53;99172.22;5046619;28;20063;-63
2021/06/03 02:41:06;;;;;;;7.77;5.20;;;;;;;10.21;74.59;99177.34;5046730;28;20095;-63
2021/06/03 02:43:32;;;;;;;6.00;5.40;;;;;;;10.17;75.38;99183.38;5045471;28;20033;-63
2021/06/03 02:45:58;;;;;;;6.57;5.90;;;;;;;10.12;75.42;99179.09;5044574;28;20040;-63
2021/06/03 02:48:23;;;;;;;7.33;5.77;;;;;;;10.10;75.55;99186.78;5045658;28;20029;-63
2021/06/03 02:50:50;;;;;;;6.83;6.10;;;;;;;10.13;74.95;99186.78;5042267;28;20294;-63
2021/06/03 02:53:15;;;;;;;5.80;5.20;;;;;;;10.12;74.98;99186.78;5043485;28;20047;-63
2021/06/03 02:55:42;;;;;;;6.37;5.03;;;;;;;10.12;74.46;99189.34;5045515;28;20037;-64
2021/06/03 02:58:09;;;;;;;6.20;5.60;;;;;;;10.08;75.36;99197.06;5041040;28;20029;-63
2021/06/03 03:00:35;;;;;;;7.40;6.70;;;;;;;10.05;74.95;99199.66;5058312;28;20029;-63
2021/06/03 03:03:03;;;;;;;6.23;5.63;;;;;;;10.15;74.49;99192.75;5043497;28;20075;-64
2021/06/03 03:05:29;;;;;;;6.03;5.43;;;;;;;10.06;75.09;99188.53;5043336;28;20819;-63
2021/06/03 03:07:54;;;;;;;9.87;5.20;;;;;;;10.06;75.17;99192.78;5045886;28;20059;-63
2021/06/03 03:10:25;;;;;;;5.90;5.30;;;;;;;10.07;75.15;99181.69;5044155;28;20321;-63
2021/06/03 03:12:51;;;;;;;5.60;5.03;;;;;;;10.04;75.68;99190.25;5043642;28;20040;-62
2021/06/03 03:15:18;;;;;;;5.47;4.97;;;;;;;10.00;75.62;99188.59;5043534;28;20048;-62
2021/06/03 03:17:44;;;;;;;7.17;5.53;;;;;;;9.99;75.60;99193.72;5042888;28;20044;-62
2021/06/03 03:20:11;;;;;;;9.23;5.20;;;;;;;9.99;76.12;99191.16;5043525;28;20029;-62
2021/06/03 03:22:38;;;;;;;5.53;5.03;;;;;;;10.00;75.84;99196.28;5041500;28;20461;-62
2021/06/03 03:25:07;;;;;;;5.63;5.13;;;;;;;10.04;75.84;99197.94;5042874;28;20123;-62
2021/06/03 03:27:33;;;;;;;6.30;5.07;;;;;;;10.05;75.55;99199.66;5039697;28;20065;-62
2021/06/03 03:29:59;;;;;;;7.87;5.37;;;;;;;10.08;75.85;99198.78;5057590;28;20064;-62
2021/06/03 03:32:24;;;;;;;6.90;4.97;;;;;;;10.12;76.16;99204.72;5041801;28;20033;-62
2021/06/03 03:34:50;;;;;;;5.80;5.30;;;;;;;10.15;75.10;99199.56;5049663;28;20040;-62
2021/06/03 03:37:15;;;;;;;5.83;5.33;;;;;;;10.23;74.93;99205.50;5041839;28;20029;-62
2021/06/03 03:39:40;;;;;;;6.13;5.53;;;;;;;10.29;75.14;99208.03;5041356;28;20267;-62
2021/06/03 03:42:06;;;;;;;5.43;4.93;;;;;;;10.35;75.56;99213.97;5043642;28;20084;-63
2021/06/03 03:44:31;;;;;;;8.20;4.97;;;;;;;10.45;75.30;99213.00;5042571;28;20125;-63
2021/06/03 03:46:57;;;;;;;5.87;5.27;;;;;;;10.63;74.07;99211.13;5041346;28;20096;-63
2021/06/03 03:49:23;;;;;;;6.87;5.03;;;;;;;10.70;73.87;99202.50;5041589;28;20037;-62
2021/06/03 03:51:49;;;;;;;6.70;5.90;;;;;;;10.88;73.82;99215.97;5043229;28;20123;-62
2021/06/03 03:54:15;;;;;;;5.80;5.23;;;;;;;10.99;72.65;99206.44;5041443;28;20144;-62
2021/06/03 03:56:40;;;;;;;5.70;5.20;;;;;;;11.16;72.69;99213.94;5042687;28;20450;-62
2021/06/03 03:59:06;;;;;;;5.77;4.97;;;;;;;11.33;71.75;99219.72;5044557;28;20045;-62
2021/06/03 04:01:31;;;;;;;6.73;6.07;;;;;;;11.50;71.71;99219.50;5044481;28;20110;-62
2021/06/03 04:03:57;;;;;;;5.87;5.03;;;;;;;11.67;70.48;99219.31;5039976;28;20044;-62
2021/06/03 04:06:22;;;;;;;5.60;5.07;;;;;;;11.83;69.83;99221.66;5044294;28;20386;-62
2021/06/03 04:08:48;;;;;;;5.20;4.70;;;;;;;11.95;69.44;99218.06;5041848;28;20102;-62
2021/06/03 04:11:14;;;;;;;6.13;4.90;;;;;;;12.12;68.79;99231.50;5041325;28;20048;-62
2021/06/03 04:13:39;;;;;;;5.17;4.67;;;;;;;12.33;68.78;99227.72;5043108;28;20127;-63
2021/06/03 04:16:05;;;;;;;5.90;4.70;;;;;;;12.48;68.05;99237.75;5042217;28;20048;-63
2021/06/03 04:18:30;;;;;;;5.55;4.80;;;;;;;12.66;67.18;99227.13;5043341;28;20370;-63
2021/06/03 04:20:56;;;;;;;4.90;4.40;;;;;;;12.73;66.99;99226.16;5056797;28;20041;-64
2021/06/03 04:23:21;;;;;;;7.45;4.57;;;;;;;12.79;66.75;99227.78;5041784;28;20302;-64
2021/06/03 04:25:47;;;;;;;6.55;4.70;;;;;;;12.81;67.04;99234.56;5041219;28;20263;-63
2021/06/03 04:28:12;;;;;;;5.05;4.63;;;;;;;12.87;67.20;99237.91;5041867;28;20041;-64
2021/06/03 04:30:41;;;;;;;5.60;4.85;;;;;;;13.18;66.75;99244.22;5040325;28;20041;-64
2021/06/03 04:33:09;;;;;;;6.05;4.40;;;;;;;13.44;65.07;99244.56;5041324;28;20072;-63
2021/06/03 04:35:36;;;;;;;5.75;5.20;;;;;;;13.63;64.63;99251.00;5042971;28;20036;-63
2021/06/03 04:38:02;;;;;;;6.72;4.47;;;;;;;13.60;64.50;99253.66;5041449;28;20114;-64
2021/06/03 04:40:27;;;;;;;8.00;4.97;;;;;;;13.39;64.54;99254.09;5043656;28;20388;-64
2021/06/03 04:42:53;;;;;;;4.50;4.10;;;;;;;13.70;64.59;99262.88;5042846;28;20033;-63
2021/06/03 04:45:20;;;;;;;5.55;5.05;;;;;;;13.96;64.16;99264.06;5041774;28;20439;-65
2021/06/03 04:47:46;;;;;;;6.93;6.30;;;;;;;14.29;62.36;99259.84;5042049;28;20044;-64
2021/06/03 04:50:17;;;;;;;6.70;6.10;;;;;;;14.62;61.94;99264.19;5043532;28;20064;-63
2021/06/03 04:52:43;;;;;;;6.20;5.63;;;;;;;14.72;60.74;99269.97;5042867;28;20056;-63
2021/06/03 04:55:14;;;;;;;5.95;5.45;;;;;;;14.95;60.74;99271.06;5044127;28;20124;-65
2021/06/03 04:57:40;;;;;;;6.03;5.47;;;;;;;15.12;59.71;99270.63;5042266;28;20045;-65
2021/06/03 05:00:12;;;;;;;7.10;6.47;;;;;;;15.21;59.32;99282.44;5040947;28;20056;-65
2021/06/03 05:02:39;;;;;;;7.32;6.53;;;;;;;15.32;58.99;99278.66;5040109;28;20067;-65
2021/06/03 05:05:05;;;;;;;7.85;6.88;;;;;;;15.56;58.82;99281.50;5039980;28;20037;-65
2021/06/03 05:07:31;;;;;;;7.57;6.93;;;;;;;15.58;58.53;99288.31;5042377;28;20099;-65
2021/06/03 05:09:56;;;;;;;8.25;6.63;;;;;;;15.71;58.57;99284.47;5039825;28;20370;-65
2021/06/03 05:12:22;;;;;;;8.07;7.32;;;;;;;15.63;58.88;99286.44;5043058;28;20029;-65
2021/06/03 05:14:48;;;;;;;11.20;8.18;;;;;;;15.66;58.85;99290.69;5057363;28;20091;-65
2021/06/03 05:17:13;;;;;;;10.73;7.93;;;;;;;15.54;59.50;99295.28;5043878;28;20649;-65
2021/06/03 05:19:39;;;;;;;8.93;7.82;;;;;;;15.65;58.88;99292.41;5041645;28;20430;-65
2021/06/03 05:22:05;;;;;;;13.02;6.97;;;;;;;15.74;58.58;99299.88;5044123;28;20033;-64
2021/06/03 05:24:31;;;;;;;9.88;6.75;;;;;;;15.85;59.21;99300.44;5042740;28;20037;-65
2021/06/03 05:26:58;;;;;;;7.82;7.03;;;;;;;15.89;58.42;99299.44;5041481;28;20132;-64
2021/06/03 05:29:24;;;;;;;9.13;7.28;;;;;;;15.93;59.00;99289.84;5041446;28;20024;-64
2021/06/03 05:31:49;;;;;;;8.70;7.20;;;;;;;16.08;58.49;99289.41;5043589;28;20044;-64
2021/06/03 05:34:15;;;;;;;10.30;8.32;;;;;;;15.81;59.12;99296.25;5043466;28;20443;-65
2021/06/03 05:36:41;;;;;;;9.10;7.80;;;;;;;16.04;58.34;99299.91;5044544;28;20086;-65
2021/06/03 05:39:08;;;;;;;7.25;6.65;;;;;;;16.31;57.72;99304.19;5045656;28;20030;-65
2021/06/03 05:41:36;;;;;;;8.38;7.40;;;;;;;16.46;57.67;99301.16;5046150;28;20039;-64
2021/06/03 05:44:02;;;;;;;8.05;7.28;;;;;;;16.50;57.22;99307.91;5054182;28;20104;-64
2021/06/03 05:46:27;;;;;;;9.43;6.82;;;;;;;16.66;57.31;99306.56;5044680;28;20366;-64
2021/06/03 05:48:53;;;;;;;7.75;7.03;;;;;;;16.88;55.82;99312.72;5046459;28;20028;-63
2021/06/03 05:51:19;;;;;;;9.60;6.88;;;;;;;17.01;55.23;99312.31;5045800;28;20053;-64
2021/06/03 05:53:45;;;;;;;7.75;6.97;;;;;;;17.06;54.99;99321.59;5045266;28;20358;-65
2021/06/03 05:56:10;;;;;;;7.45;6.18;;;;;;;17.11;55.15;99314.50;5045568;28;20040;-65
2021/06/03 05:58:36;;;;;;;10.07;7.15;;;;;;;17.08;55.37;99322.41;5043283;28;20033;-63
2021/06/03 06:01:02;;;;;;;8.00;7.28;;;;;;;17.31;54.41;99319.84;5046616;28;20106;-65
2021/06/03 06:06:31;;;;;;;7.35;6.65;;;;;;;17.44;53.18;99322.84;4966428;28;20054;-64
2021/06/03 06:09:04;;;;;;;6.63;5.85;;;;;;;17.22;53.84;99327.97;4962129;28;20504;-64
2021/06/03 06:11:33;;;;;;;6.45;5.85;;;;;;;17.50;53.13;99334.75;4965479;28;20073;-64
2021/06/03 06:13:59;;;;;;;6.22;5.20;;;;;;;17.69;53.14;99341.88;4966342;28;20308;-64
2021/06/03 06:16:24;;;;;;;10.43;5.80;;;;;;;17.76;51.89;99334.69;4964856;28;20050;-64
2021/06/03 06:18:50;;;;;;;8.10;5.93;;;;;;;17.77;50.02;99333.81;4961815;28;20381;-64
2021/06/03 06:21:18;;;;;;;7.03;5.72;;;;;;;17.83;49.94;99335.31;4964127;28;20046;-65
2021/06/03 06:23:45;;;;;;;5.32;4.82;;;;;;;18.00;49.73;99341.56;4960774;28;20035;-65
2021/06/03 06:26:10;;;;;;;5.68;5.07;;;;;;;18.06;49.93;99330.09;4964011;28;20035;-63
2021/06/03 06:28:37;;;;;;;6.20;5.05;;;;;;;18.21;49.16;99332.94;4959479;28;20768;-63
2021/06/03 06:31:04;;;;;;;8.82;5.88;;;;;;;18.23;49.88;99336.34;4966841;28;20086;-63
2021/06/03 06:33:29;;;;;;;6.43;5.40;;;;;;;18.17;49.34;99338.31;4961858;28;20035;-63
2021/06/03 06:35:55;;;;;;;5.68;5.18;;;;;;;18.29;50.27;99335.25;4960517;28;20042;-63
2021/06/03 06:38:22;;;;;;;6.30;5.60;;;;;;;18.42;49.90;99336.47;4963442;28;20435;-64
2021/06/03 06:40:50;;;;;;;5.80;5.40;;;;;;;18.54;49.22;99336.00;5016265;28;20068;-63
2021/06/03 06:43:16;;;;;;;6.43;5.80;;;;;;;18.55;48.96;99334.25;5041290;28;20112;-63
2021/06/03 06:45:41;;;;;;;6.40;5.88;;;;;;;18.79;50.42;99340.22;5043791;28;20112;-63
2021/06/03 06:48:09;;;;;;;7.32;6.65;;;;;;;18.60;50.40;99340.13;5044232;28;20044;-65
2021/06/03 06:50:39;;;;;;;7.82;5.70;;;;;;;18.90;49.64;99344.06;5041911;28;20050;-64
2021/06/03 06:53:06;;;;;;;7.35;6.30;;;;;;;18.95;48.85;99351.69;5040741;28;20029;-65
2021/06/03 06:55:32;;;;;;;6.57;5.97;;;;;;;18.96;48.98;99349.03;5042795;28;20032;-64
2021/06/03 06:57:59;;;;;;;10.57;7.00;;;;;;;19.01;48.79;99352.25;5041954;28;20274;-65
2021/06/03 07:00:27;;;;;;;7.50;5.97;;;;;;;19.08;48.06;99345.91;5046040;28;20025;-65
2021/06/03 07:02:53;;;;;;;11.25;7.18;;;;;;;19.09;48.69;99350.22;5043641;28;20056;-64
2021/06/03 07:05:20;;;;;;;7.22;6.63;;;;;;;19.11;49.00;99345.78;5042070;28;20102;-65
2021/06/03 07:07:45;;;;;;;6.45;5.85;;;;;;;19.16;48.26;99345.56;5057950;28;20057;-64
2021/06/03 07:10:12;;;;;;;7.05;6.43;;;;;;;19.33;48.29;99342.25;5043946;28;20021;-65
2021/06/03 07:12:39;;;;;;;7.05;6.43;;;;;;;19.43;47.48;99347.03;5041353;28;20383;-64
2021/06/03 07:15:07;;;;;;;7.47;6.32;;;;;;;19.22;48.32;99355.72;5041545;28;20083;-64
2021/06/03 07:17:33;;;;;;;8.52;6.22;;;;;;;19.30;48.32;99337.19;5042514;28;20036;-65
2021/06/03 07:19:58;;;;;;;7.50;5.95;;;;;;;19.40;48.22;99339.31;5057744;28;20025;-65
2021/06/03 07:22:24;;;;;;;6.28;5.75;;;;;;;19.54;48.93;99343.97;5042443;28;20033;-64
2021/06/03 07:24:49;;;;;;;6.05;5.45;;;;;;;19.79;48.69;99349.75;5039151;28;20029;-64
2021/06/03 07:27:15;;;;;;;6.68;6.05;;;;;;;19.99;47.34;99336.69;5044332;28;20102;-64
2021/06/03 07:29:41;;;;;;;6.80;6.22;;;;;;;20.01;46.47;99342.69;5040380;28;20037;-63
2021/06/03 07:32:07;;;;;;;6.72;5.85;;;;;;;19.83;47.10;99348.72;5045009;28;20064;-63
2021/06/03 07:34:33;;;;;;;5.18;4.75;;;;;;;20.07;46.70;99344.16;5040776;28;20036;-63
2021/06/03 07:36:59;;;;;;;7.15;5.20;;;;;;;20.17;46.03;99340.19;5038388;28;20041;-64
2021/06/03 07:39:25;;;;;;;6.38;5.10;;;;;;;20.34;46.77;99345.50;5045282;28;20473;-65
2021/06/03 07:41:51;;;;;;;5.43;4.68;;;;;;;20.54;45.82;99351.53;5046144;28;20033;-63
2021/06/03 07:44:17;;;;;;;6.68;5.95;;;;;;;20.68;46.11;99349.09;5042535;28;20102;-66
2021/06/03 07:46:44;;;;;;;6.25;5.63;;;;;;;20.88;45.04;99351.56;5043603;28;20116;-64
2021/06/03 07:49:13;;;;;;;5.43;5.03;;;;;;;20.86;44.53;99359.47;5047785;28;20035;-64
2021/06/03 07:51:43;;;;;;;5.78;5.38;;;;;;;20.64;45.07;99350.16;5042769;28;20367;-65
2021/06/03 07:54:10;;;;;;;8.70;5.88;;;;;;;20.67;44.96;99350.84;5042636;28;20033;-64
2021/06/03 07:56:35;;;;;;;7.35;5.20;;;;;;;20.72;45.08;99353.22;5041503;28;20022;-64
2021/06/03 07:59:02;;;;;;;4.90;4.50;;;;;;;21.11;45.09;99353.03;5044531;28;20024;-64
2021/06/03 08:01:28;;;;;;;6.22;4.93;;;;;;;21.31;44.60;99350.28;5042335;28;20139;-64
2021/06/03 08:03:53;;;;;;;5.95;5.40;;;;;;;21.24;44.37;99347.16;5042644;28;20131;-62
2021/06/03 08:06:19;;;;;;;6.13;5.55;;;;;;;21.31;44.26;99348.53;5030329;28;20032;-64
2021/06/03 08:08:44;;;;;;;5.18;4.78;;;;;;;21.36;45.59;99348.28;5022356;28;20118;-62
2021/06/03 08:11:10;;;;;;;6.95;4.70;;;;;;;21.60;44.86;99347.00;5034336;28;20037;-64
2021/06/03 08:13:36;;;;;;;5.18;4.68;;;;;;;21.84;43.80;99345.75;5029260;28;20084;-64
2021/06/03 08:16:04;;;;;;;5.95;5.45;;;;;;;21.88;43.62;99341.19;5031255;28;20094;-63
2021/06/03 08:18:30;;;;;;;5.28;4.88;;;;;;;21.98;42.79;99350.22;5028842;28;20045;-62
2021/06/03 08:20:58;;;;;;;6.05;5.13;;;;;;;22.02;42.87;99351.78;5041492;28;20053;-64
2021/06/03 08:23:26;;;;;;;5.65;5.15;;;;;;;21.91;43.08;99351.47;5040032;28;20353;-62
2021/06/03 08:25:52;;;;;;;5.88;4.47;;;;;;;22.07;42.94;99359.34;5038904;28;20394;-62
2021/06/03 08:28:19;;;;;;;4.93;4.45;;;;;;;22.10;42.79;99348.75;4996486;28;20670;-62
2021/06/03 08:30:45;;;;;;;5.25;4.78;;;;;;;21.97;43.60;99351.19;5037695;28;20624;-64
2021/06/03 08:33:11;;;;;;;6.32;5.05;;;;;;;22.21;44.22;99356.81;5032386;28;20041;-63
2021/06/03 08:35:38;;;;;;;8.10;4.38;;;;;;;22.47;43.33;99358.00;5035778;28;20064;-63
2021/06/03 08:38:06;;;;;;;5.38;4.40;;;;;;;22.39;43.22;99349.75;5040901;28;20207;-63
2021/06/03 08:40:35;;;;;;;5.93;4.82;;;;;;;22.49;42.18;99343.91;5012565;28;20377;-63
2021/06/03 08:43:03;;;;;;;4.28;3.63;;;;;;;22.69;42.46;99346.28;5026826;28;20033;-63
2021/06/03 08:45:30;;;;;;;5.13;4.50;;;;;;;22.81;41.95;99346.50;5039213;28;20398;-62
2021/06/03 08:47:57;;;;;;;4.78;4.32;;;;;;;23.04;41.79;99344.25;5039805;28;20041;-63
2021/06/03 08:50:26;;;;;;;5.63;4.20;;;;;;;22.87;40.91;99340.94;5038102;28;20124;-62
2021/06/03 08:52:52;;;;;;;6.85;4.25;;;;;;;22.67;40.94;99339.41;5039073;28;20067;-62
2021/06/03 08:58:04;;;;;;;4.28;3.90;;;;;;;22.59;42.22;99342.47;5040198;28;20044;-63
2021/06/03 09:00:31;;;;;;;6.15;4.10;;;;;;;22.80;41.68;99337.81;5040507;28;20057;-62
2021/06/03 09:02:56;;;;;;;4.40;4.05;;;;;;;23.11;40.66;99334.28;5042431;28;20116;-63
2021/06/03 09:05:22;;;;;;;4.18;3.88;;;;;;;22.99;40.26;99343.69;5040891;28;20512;-62
2021/06/03 09:07:48;;;;;;;4.80;4.22;;;;;;;22.98;41.35;99331.53;5041397;28;20048;-64
2021/06/03 09:10:29;;;;;;;6.45;4.18;;;;;;;23.12;40.36;99334.19;5043283;28;20021;-63
2021/06/03 09:13:21;;;;;;;4.40;4.10;;;;;;;23.33;40.18;99332.09;5045583;28;20082;-63
2021/06/03 09:15:55;;;;;;;6.68;3.90;;;;;;;23.28;38.79;99321.03;5043783;28;20530;-63
2021/06/03 09:18:28;;;;;;;7.35;3.75;;;;;;;23.72;39.57;99339.31;5044421;28;20029;-64
2021/06/03 09:20:54;;;;;;;4.45;4.15;;;;;;;23.81;39.00;99328.28;5045685;28;20021;-63
2021/06/03 09:23:39;;;;;;;4.65;4.07;;;;;;;23.80;38.85;99331.00;5044187;28;20039;-65
2021/06/03 09:26:06;;;;;;;;;;;;;;;24.05;38.51;99337.25;5043185;28;20056;-66
2021/06/03 09:28:34;;;;;;;6.03;3.80;;;;;;;24.27;37.59;99336.75;5042332;28;20262;-64
2021/06/03 09:31:19;;;;;;;9.20;3.67;;;;;;;24.28;37.38;99325.31;5043405;28;20071;-66
2021/06/03 09:33:49;;;;;;;6.63;4.07;;;;;;;24.24;37.52;99328.22;5043953;28;20037;-64
2021/06/03 09:36:19;;;;;;;5.28;4.07;;;;;;;24.38;38.35;99334.28;5043824;28;20059;-64
2021/06/03 09:38:57;;;;;;;4.25;3.85;;;;;;;24.39;37.70;99330.72;5043291;28;20282;-64
2021/06/03 09:41:25;;;;;;;6.68;4.00;;;;;;;24.53;37.59;99325.41;5043182;28;20025;-64
2021/06/03 09:44:02;;;;;;;4.40;4.05;;;;;;;24.84;37.08;99332.13;5043558;28;20067;-66
2021/06/03 09:46:32;;;;;;;4.10;3.72;;;;;;;24.84;37.33;99331.28;5043188;28;20041;-65
2021/06/03 09:48:58;;;;;;;4.43;4.03;;;;;;;24.72;36.92;99329.47;5042869;28;20051;-64
2021/06/03 09:51:27;;;;;;;5.20;4.18;;;;;;;24.67;35.73;99335.03;5043002;28;20245;-65
2021/06/03 09:54:07;;;;;;;6.68;3.92;;;;;;;24.47;35.93;99323.22;5045395;28;20036;-65
2021/06/03 09:56:43;;;;;;;5.07;4.40;;;;;;;24.88;36.26;99324.94;5043912;28;20116;-65
2021/06/03 09:59:30;;;;;;;4.15;3.75;;;;;;;25.06;37.13;99326.34;5045557;28;20032;-66
2021/06/03 10:02:07;;;;;;;5.38;4.28;;;;;;;24.92;35.91;99323.78;5018773;28;20439;-65
2021/06/03 10:04:35;;;;;;;4.97;4.57;;;;;;;25.04;37.19;99325.59;5043491;28;20033;-65
2021/06/03 10:07:04;;;;;;;5.32;3.88;;;;;;;25.18;36.08;99317.63;5046607;28;20049;-65
2021/06/03 10:09:49;;;;;;;4.47;4.10;;;;;;;25.26;35.96;99320.56;5043621;28;20051;-65
2021/06/03 10:12:27;;;;;;;4.13;3.65;;;;;;;25.43;36.65;99319.41;5042560;28;20029;-65
2021/06/03 10:15:04;;;;;;;4.60;4.15;;;;;;;25.42;35.95;99317.72;5049198;28;20041;-65
2021/06/03 10:17:33;;;;;;;4.72;4.32;;;;;;;25.16;35.35;99316.91;5044284;28;20424;-65
2021/06/03 10:20:11;;;;;;;4.20;3.90;;;;;;;25.06;37.32;99310.59;5033300;28;20075;-66
2021/06/03 10:22:43;;;;;;;4.15;3.83;;;;;;;25.37;37.80;99315.44;5037260;28;20032;-65
2021/06/03 10:25:22;;;;;;;5.10;4.70;;;;;;;25.70;37.06;99304.41;5045624;28;20032;-65
2021/06/03 10:27:57;;;;;;;4.80;4.15;;;;;;;25.40;35.01;99304.72;5042045;28;20029;-66
2021/06/03 10:30:27;;;;;;;6.70;4.97;;;;;;;25.61;35.70;99304.22;5042868;28;20132;-65
2021/06/03 10:32:56;;;;;;;4.68;4.28;;;;;;;25.57;35.26;99297.50;5041350;28;20382;-65
2021/06/03 10:35:25;;;;;;;4.78;4.53;;;;;;;25.86;37.12;99302.38;5043282;28;20048;-66
2021/06/03 10:37:51;;;;;;;8.55;4.93;;;;;;;25.80;37.25;99302.00;5041400;28;20037;-66
2021/06/03 10:40:29;;;;;;;4.80;4.32;;;;;;;26.04;35.64;99299.41;5042753;28;20029;-65
2021/06/03 10:42:55;;;;;;;4.60;4.30;;;;;;;26.00;35.88;99305.81;5042961;28;20037;-66
2021/06/03 10:45:22;;;;;;;6.00;4.47;;;;;;;26.04;36.48;99302.88;5041950;28;20072;-65
2021/06/03 10:47:48;;;;;;;4.50;4.15;;;;;;;25.73;34.76;99298.09;5043065;28;20120;-66
2021/06/03 10:50:21;;;;;;;7.05;6.35;;;;;;;25.43;35.12;99296.63;5043060;28;20400;-66
2021/06/03 10:52:47;;;;;;;5.43;4.90;;;;;;;25.42;35.70;99296.72;5043415;28;20037;-67
2021/06/03 10:55:31;;;;;;;4.22;3.92;;;;;;;25.47;35.61;99295.47;5057492;28;20405;-66
2021/06/03 10:58:01;;;;;;;4.18;3.78;;;;;;;25.18;37.05;99301.88;5039849;28;20450;-66
2021/06/03 11:00:40;;;;;;;4.25;3.95;;;;;;;25.13;37.92;99303.97;5042435;28;20036;-67
2021/06/03 11:03:11;;;;;;;4.93;4.13;;;;;;;25.51;35.92;99300.50;5041314;28;20436;-67
2021/06/03 11:05:43;;;;;;;4.40;4.10;;;;;;;25.58;35.07;99293.94;5040095;28;20068;-67
2021/06/03 11:08:35;;;;;;;5.70;3.70;;;;;;;25.40;35.97;99302.09;5039936;28;20105;-67
2021/06/03 11:11:10;;;;;;;6.25;4.03;;;;;;;25.55;35.26;99302.00;5041045;28;20043;-67
2021/06/03 11:13:36;;;;;;;;;;;;;;;25.67;35.37;99303.78;5042987;28;20094;-67
2021/06/03 11:16:21;;;;;;;4.40;4.07;;;;;;;26.23;35.72;99303.25;5040321;28;20304;-64
2021/06/03 11:18:47;;;;;;;6.60;4.55;;;;;;;26.16;36.08;99307.25;5043409;28;20116;-64
2021/06/03 11:21:46;;;;;;;4.53;4.18;;;;;;;26.20;34.33;99300.84;5042042;28;20151;-64
2021/06/03 11:24:36;;;;;;;4.95;4.35;;;;;;;26.15;34.72;99310.81;5025393;28;20047;-64
2021/06/03 11:27:04;;;;;;;6.45;4.60;;;;;;;26.46;34.71;99298.94;5043000;28;20064;-64
2021/06/03 11:29:53;;;;;;;4.68;4.28;;;;;;;26.61;35.11;99300.44;5040491;28;20326;-64
2021/06/03 11:32:29;;;;;;;5.25;4.05;;;;;;;26.82;33.48;99292.72;5040663;28;20029;-64
2021/06/03 11:35:02;;;;;;;4.50;4.10;;;;;;;26.86;32.86;99293.41;5041473;28;20104;-63
2021/06/03 11:37:34;;;;;;;8.27;5.78;;;;;;;26.82;32.88;99290.09;5045036;28;20045;-64
2021/06/03 11:40:13;;;;;;;5.00;4.60;;;;;;;26.83;33.89;99294.41;5042300;28;20037;-64
2021/06/03 11:42:43;;;;;;;7.28;5.00;;;;;;;26.78;34.74;99296.56;5040935;28;20453;-65
2021/06/03 11:45:12;;;;;;;5.68;4.15;;;;;;;26.81;33.89;99289.28;5040882;28;20025;-64